createdAt,value
2023-02-28T00:04:15.992Z,101496.81
2023-02-28T00:09:20.133Z,101493.94
2023-02-28T00:14:22.945Z,101491.13
2023-02-28T00:19:25.840Z,101492.66
2023-02-28T00:24:30.007Z,101496.00
2023-02-28T00:29:32.802Z,101493.19
2023-02-28T00:34:38.492Z,101486.63
2023-02-28T00:39:42.724Z,101490.09
2023-02-28T00:44:45.496Z,101483.69
2023-02-28T00:49:48.239Z,101491.66
2023-02-28T00:54:52.350Z,101484.22
2023-02-28T00:59:56.130Z,101480.50
2023-02-28T01:04:58.877Z,101474.09
2023-02-28T01:10:03.027Z,101480.22
2023-02-28T01:15:06.898Z,101480.00
2023-02-28T01:20:11.346Z,101477.16
2023-02-28T01:25:15.858Z,101477.91
2023-02-28T01:30:18.888Z,101481.31
2023-02-28T01:35:23.635Z,101478.47
2023-02-28T01:40:27.934Z,101480.16
2023-02-28T01:45:32.248Z,101473.75
2023-02-28T01:50:38.324Z,101473.66
2023-02-28T01:55:46.833Z,101461.91
2023-02-28T02:00:49.571Z,101463.50
2023-02-28T02:05:52.584Z,101465.25
2023-02-28T02:10:59.015Z,101456.13
2023-02-28T02:16:13.734Z,101456.94
2023-02-28T02:21:53.088Z,101454.94
2023-02-28T02:27:18.473Z,101454.00
2023-02-28T02:33:05.055Z,101449.44
2023-02-28T02:38:15.052Z,101449.25
2023-02-28T02:43:24.892Z,101444.75
2023-02-28T02:48:32.061Z,101445.56
2023-02-28T02:53:42.579Z,101448.09
2023-02-28T02:58:46.865Z,101446.22
2023-02-28T03:03:50.146Z,101451.66
2023-02-28T03:08:54.730Z,101443.81
2023-02-28T03:14:36.075Z,101453.63
2023-02-28T03:19:53.679Z,101453.69
2023-02-28T03:25:06.782Z,101457.44
2023-02-28T03:30:16.819Z,101465.88
2023-02-28T03:35:24.098Z,101467.06
2023-02-28T03:40:33.892Z,101466.63
2023-02-28T03:45:40.284Z,101464.22
2023-02-28T03:50:46.230Z,101460.00
2023-02-28T03:55:54.089Z,101458.31
2023-02-28T04:01:08.494Z,101461.00
2023-02-28T04:06:18.476Z,101464.81
2023-02-28T04:11:25.981Z,101464.81
2023-02-28T04:16:35.416Z,101471.19
2023-02-28T04:21:40.918Z,101470.41
2023-02-28T04:26:46.974Z,101467.94
2023-02-28T04:31:49.885Z,101471.56
2023-02-28T04:37:11.515Z,101475.34
2023-02-28T04:42:17.190Z,101475.34
2023-02-28T04:47:20.068Z,101485.41
2023-02-28T04:52:22.913Z,101479.41
2023-02-28T04:57:27.055Z,101483.03
2023-02-28T05:02:29.863Z,101483.16
2023-02-28T05:07:32.812Z,101483.22
2023-02-28T05:12:36.881Z,101481.63
2023-02-28T05:17:39.620Z,101482.53
2023-02-28T05:22:43.144Z,101488.00
2023-02-28T05:27:47.545Z,101489.16
2023-02-28T05:32:53.007Z,101492.78
2023-02-28T05:37:55.929Z,101488.44
2023-02-28T05:43:00.110Z,101500.25
2023-02-28T05:48:02.850Z,101498.66
2023-02-28T05:53:05.750Z,101502.41
2023-02-28T05:58:09.860Z,101510.53
2023-02-28T06:03:12.631Z,101518.75
2023-02-28T06:08:15.555Z,101526.06
2023-02-28T06:13:20.181Z,101525.41
2023-02-28T06:18:23.008Z,101537.28
2023-02-28T06:23:26.183Z,101541.78
2023-02-28T06:28:30.326Z,101543.59
2023-02-28T06:33:33.092Z,101549.09
2023-02-28T06:38:37.203Z,101549.28
2023-02-28T06:43:43.962Z,101553.94
2023-02-28T06:48:48.012Z,101556.63
2023-02-28T06:53:50.786Z,101563.84
2023-02-28T06:58:54.934Z,101568.34
2023-02-28T07:03:57.725Z,101575.63
2023-02-28T07:09:01.362Z,101585.50
2023-02-28T07:14:05.551Z,101582.81
2023-02-28T07:19:08.352Z,101592.69
2023-02-28T07:24:11.378Z,101581.09
2023-02-28T07:29:15.538Z,101588.28
2023-02-28T07:34:18.471Z,101594.53
2023-02-28T07:39:24.033Z,101591.19
2023-02-28T07:44:28.367Z,101584.00
2023-02-28T07:49:31.206Z,101596.50
2023-02-28T07:54:34.361Z,101601.88
2023-02-28T07:59:38.624Z,101598.34
2023-02-28T08:04:41.551Z,101609.03
2023-02-28T08:09:44.589Z,101605.88
2023-02-28T08:14:48.798Z,101605.44
2023-02-28T08:19:51.560Z,101596.91
2023-02-28T08:24:54.313Z,101591.81
2023-02-28T08:29:58.441Z,101597.66
2023-02-28T08:35:01.199Z,101599.47
2023-02-28T08:40:05.116Z,101608.53
2023-02-28T08:45:10.184Z,101594.59
2023-02-28T08:50:15.829Z,101593.97
2023-02-28T08:55:18.692Z,101605.25
2023-02-28T09:00:24.366Z,101604.97
2023-02-28T09:05:27.212Z,101597.50
2023-02-28T09:10:30.056Z,101609.72
2023-02-28T09:15:34.330Z,101605.91
2023-02-28T09:20:39.729Z,101609.28
2023-02-28T09:25:48.240Z,101608.28
2023-02-28T09:30:54.900Z,101605.38
2023-02-28T09:36:01.942Z,101599.78
2023-02-28T09:41:12.686Z,101605.06
2023-02-28T09:46:28.875Z,101598.72
2023-02-28T09:51:47.564Z,101603.19
2023-02-28T09:56:54.308Z,101604.00
2023-02-28T10:02:06.594Z,101602.13
2023-02-28T10:07:23.442Z,101601.94
2023-02-28T10:12:30.106Z,101599.09
2023-02-28T10:17:54.755Z,101598.09
2023-02-28T10:23:08.308Z,101596.13
2023-02-28T10:28:13.254Z,101597.72
2023-02-28T10:33:25.042Z,101592.22
2023-02-28T10:38:30.946Z,101595.63
2023-02-28T10:43:33.973Z,101590.13
2023-02-28T10:48:40.172Z,101580.94
2023-02-28T10:54:00.516Z,101579.94
2023-02-28T10:59:07.388Z,101571.72
2023-02-28T11:04:33.782Z,101568.81
2023-02-28T11:09:40.525Z,101555.22
2023-02-28T11:14:51.166Z,101552.25
2023-02-28T11:19:59.606Z,101556.69
2023-02-28T11:25:08.996Z,101546.47
2023-02-28T11:30:34.823Z,101552.53
2023-02-28T11:35:41.404Z,101557.69
2023-02-28T11:40:52.467Z,101559.66
2023-02-28T11:46:08.487Z,101557.91
2023-02-28T11:51:20.319Z,101558.13
2023-02-28T11:56:33.392Z,101551.06
2023-02-28T12:01:47.501Z,101544.88
2023-02-28T12:06:59.651Z,101546.69
2023-02-28T12:12:13.051Z,101543.97
2023-02-28T12:17:35.305Z,101530.34
2023-02-28T12:22:50.343Z,101532.88
2023-02-28T12:27:55.107Z,101528.16
2023-02-28T12:33:03.497Z,101531.50
2023-02-28T12:38:15.538Z,101522.31
2023-02-28T12:43:21.865Z,101518.59
2023-02-28T12:48:31.409Z,101510.47
2023-02-28T12:53:50.156Z,101502.19
2023-02-28T12:58:58.739Z,101504.69
2023-02-28T13:04:34.310Z,101494.66
2023-02-28T13:09:40.046Z,101489.13
2023-02-28T13:14:43.027Z,101492.63
2023-02-28T13:19:49.562Z,101485.31
2023-02-28T13:24:55.000Z,101491.44
2023-02-28T13:29:57.790Z,101484.94
2023-02-28T13:35:33.863Z,101496.06
2023-02-28T13:40:38.816Z,101492.00
2023-02-28T13:46:13.178Z,101482.03
2023-02-28T13:51:41.817Z,101484.09
2023-02-28T13:56:55.142Z,101471.25
2023-02-28T14:02:23.120Z,101470.34
2023-02-28T14:07:34.370Z,101468.09
2023-02-28T14:13:03.223Z,101464.56
2023-02-28T14:18:17.419Z,101452.28
2023-02-28T14:23:35.994Z,101453.19
2023-02-28T14:28:54.743Z,101456.44
2023-02-28T14:34:13.777Z,101448.97
2023-02-28T14:39:18.698Z,101457.50
2023-02-28T14:44:24.957Z,101458.59
2023-02-28T14:49:31.343Z,101448.88
2023-02-28T14:54:34.832Z,101443.47
2023-02-28T14:59:39.250Z,101439.22
2023-02-28T15:04:42.797Z,101443.72
2023-02-28T15:09:45.623Z,101441.94
2023-02-28T15:14:52.181Z,101446.09
2023-02-28T15:19:56.776Z,101444.69
2023-02-28T15:25:00.749Z,101445.66
2023-02-28T15:30:08.242Z,101447.22
2023-02-28T15:35:28.564Z,101448.66
2023-02-28T15:40:33.825Z,101446.78
2023-02-28T15:45:46.637Z,101443.59
2023-02-28T15:50:53.414Z,101451.59
2023-02-28T15:56:04.324Z,101448.13
2023-02-28T16:01:19.768Z,101450.59
2023-02-28T16:06:35.882Z,101456.16
2023-02-28T16:11:43.110Z,101452.66
2023-02-28T16:16:49.898Z,101454.06
2023-02-28T16:21:52.729Z,101451.88
2023-02-28T16:26:58.814Z,101454.28
2023-02-28T16:32:06.015Z,101449.41
2023-02-28T16:37:13.877Z,101455.66
2023-02-28T16:42:22.526Z,101450.28
2023-02-28T16:47:27.671Z,101450.69
2023-02-28T16:52:30.460Z,101454.13
2023-02-28T16:57:34.047Z,101459.75
2023-02-28T17:02:40.467Z,101464.94
2023-02-28T17:07:44.912Z,101469.50
2023-02-28T17:12:47.710Z,101476.59
2023-02-28T17:17:52.317Z,101486.19
2023-02-28T17:22:55.695Z,101486.75
2023-02-28T17:27:58.457Z,101478.56
2023-02-28T17:33:02.908Z,101477.44
2023-02-28T17:38:05.737Z,101491.56
2023-02-28T17:43:08.653Z,101495.00
2023-02-28T17:48:14.197Z,101492.22
2023-02-28T17:53:16.942Z,101485.03
2023-02-28T17:58:20.485Z,101471.50
2023-02-28T18:03:25.202Z,101475.78
2023-02-28T18:08:28.107Z,101471.22
2023-02-28T18:13:31.488Z,101480.88
2023-02-28T18:18:38.040Z,101496.00
2023-02-28T18:23:47.653Z,101495.16
2023-02-28T18:28:50.852Z,101489.69
2023-02-28T18:33:55.209Z,101481.69
2023-02-28T18:38:58.922Z,101479.88
2023-02-28T18:44:13.681Z,101476.22
2023-02-28T18:49:23.144Z,101469.88
2023-02-28T18:54:25.986Z,101477.97
2023-02-28T18:59:28.809Z,101472.50
2023-02-28T19:04:33.281Z,101474.31
2023-02-28T19:09:36.677Z,101477.16
2023-02-28T19:14:39.511Z,101478.47
2023-02-28T19:19:44.030Z,101473.66
2023-02-28T19:24:47.088Z,101470.75
2023-02-28T19:29:51.253Z,101474.22
2023-02-28T19:34:55.407Z,101475.81
2023-02-28T19:39:58.717Z,101477.56
2023-02-28T19:45:01.732Z,101477.69
2023-02-28T19:50:07.318Z,101484.56
2023-02-28T19:55:11.065Z,101487.16
2023-02-28T20:00:16.917Z,101491.63
2023-02-28T20:05:21.160Z,101489.81
2023-02-28T20:10:24.398Z,101492.41
2023-02-28T20:15:28.343Z,101492.38
2023-02-28T20:20:36.314Z,101478.81
2023-02-28T20:25:41.231Z,101501.31
2023-02-28T20:30:44.084Z,101502.25
2023-02-28T20:35:49.211Z,101502.09
2023-02-28T20:40:55.710Z,101505.66
2023-02-28T20:46:01.701Z,101496.56
2023-02-28T20:51:07.417Z,101493.78
2023-02-28T20:56:14.008Z,101493.69
2023-02-28T21:01:19.718Z,101497.03
2023-02-28T21:06:26.370Z,101494.25
2023-02-28T21:11:30.948Z,101488.00
2023-02-28T21:16:37.190Z,101485.19
2023-02-28T21:21:44.049Z,101482.47
2023-02-28T21:26:47.937Z,101488.56
2023-02-28T21:31:52.142Z,101494.78
2023-02-28T21:36:57.108Z,101490.25
2023-02-28T21:42:03.898Z,101497.56
2023-02-28T21:47:07.083Z,101486.69
2023-02-28T21:52:11.352Z,101485.50
2023-02-28T21:57:15.999Z,101482.00
2023-02-28T22:02:18.916Z,101485.50
2023-02-28T22:07:23.078Z,101477.41
2023-02-28T22:12:26.671Z,101480.97
2023-02-28T22:17:29.450Z,101474.81
2023-02-28T22:22:33.608Z,101475.81
2023-02-28T22:27:36.352Z,101481.38
2023-02-28T22:32:39.113Z,101478.75
2023-02-28T22:37:43.236Z,101477.09
2023-02-28T22:42:46.287Z,101474.53
2023-02-28T22:47:49.629Z,101472.81
2023-02-28T22:52:53.921Z,101480.09
2023-02-28T22:57:56.700Z,101473.91
2023-02-28T23:02:59.560Z,101475.91
2023-02-28T23:08:03.684Z,101478.63
2023-02-28T23:13:06.489Z,101487.69
2023-02-28T23:18:09.316Z,101499.47
2023-02-28T23:23:13.767Z,101506.00
2023-02-28T23:28:16.518Z,101516.22
2023-02-28T23:33:19.370Z,101513.81
2023-02-28T23:38:23.786Z,101519.44
2023-02-28T23:43:26.816Z,101518.84
2023-02-28T23:48:29.628Z,101519.94
2023-02-28T23:53:34.131Z,101518.25
2023-02-28T23:58:37.390Z,101510.41
